Winthrop, Arkansas
Current Conditions -  °F | °C
As of 8:53 PM on Wednesday 26 Nov 2014 (Local Time) from KDEQ Reporting Station
Clear Clear  
Wind Chill: 38°   Ceiling: Unl
Heat Index: 41°   Visibility: 10mi
Dew Point: 33°   Wind: 5mph
Humidity: 73%   Direction: 310°NW
Pressure: 30.27"   Gusts: NA
Location:  33.83°N, 94.35°W
Report Text: KDEQ 270253Z AUTO 31004KT 10SM CLR 05/01 A3027 RMK AO2 PRESRR SLP250 T00500006 53027
Loading
Personal Weather Stations






























Interactive Weather Map New forecast layout! Learn more

10-Day Weather Forecast

Advertisements
Track Severe Weather on mobile